Список аэропортов
Фактическая погода:

18 октября, 10:00
Температура: +14°C (+13.8*)
Ветер: юго-западный 2 м/с
Давление: *764 мм
Без существ. явл.
Время (МСК)Темп. СВетерВлажностьДавлениеОблачностьОсадки
09:00+11Ю, 1 м/с86%1020 гПаясно
10:00+14ЮВ, 1 м/с76%1019 гПаясно
11:00+16В, 1 м/с69%1019 гПаясно
12:00+18В, 2 м/с63%1018 гПаясно
13:00+19СВ, 2 м/с56%1018 гПамалооблачно
14:00+20СВ, 3 м/с51%1017 гПамалооблачно
15:00+21СВ, 3 м/с48%1016 гПаясно
16:00+21СВ, 3 м/с48%1016 гПамалооблачно
17:00+20СВ, 4 м/с50%1016 гПамалооблачно
18:00+19СВ, 4 м/с55%1016 гПамалооблачно
19:00+18СВ, 4 м/с60%1017 гПамалооблачно
20:00+16СВ, 2 м/с66%1017 гПаясно
21:00+15В, 2 м/с71%1018 гПаясно
22:00+14ЮВ, 2 м/с77%1018 гПаясно
23:00+13ЮВ, 1 м/с82%1019 гПаясно
19 октября
00:00+12Ю, 1 м/с84%1019 гПаясно
01:00+11ЮВ, 1 м/с88%1019 гПаясно
02:00+11ЮВ, 1 м/с90%1019 гПамалооблачно
03:00+10ЮВ, 1 м/с93%1019 гПамалооблачно
04:00+10ЮВ, 1 м/с94%1019 гПаясно
05:00+9Ю, 1 м/с95%1019 гПамалооблачно
06:00+9ЮЗ, 1 м/с95%1019 гПас прояснениями
07:00+8ЮЗ, 1 м/с95%1019 гПас прояснениями
08:00+8ЮЗ, 1 м/с95%1020 гПас прояснениями
09:00+10Ю, 1 м/с90%1019 гПас прояснениями
10:00+12Штиль 79%1018 гПас прояснениями
11:00+15С, 1 м/с72%1018 гПас прояснениями
12:00+16С, 1 м/с64%1017 гПаясно
13:00+18С, 1 м/с58%1017 гПаясно
14:00+20СВ, 1 м/с53%1016 гПаясно
15:00+20СВ, 1 м/с48%1016 гПаясно
16:00+21СВ, 1 м/с46%1016 гПаясно
17:00+21СВ, 3 м/с48%1016 гПаясно
18:00+20СВ, 4 м/с54%1017 гПаясно
19:00+18СВ, 4 м/с60%1017 гПас прояснениями
20:00+17СВ, 2 м/с65%1018 гПас прояснениями
21:00+16В, 1 м/с70%1019 гПас прояснениями
22:00+15В, 1 м/с73%1019 гПаоблачно
23:00+14В, 1 м/с77%1019 гПаоблачно
20 октября
00:00+14Штиль 80%1019 гПаоблачно
01:00+13Штиль 84%1020 гПаоблачносл. дождь
02:00+13Ю, 1 м/с86%1020 гПаоблачносл. дождь
03:00+13ЮЗ, 1 м/с87%1020 гПаоблачнодождь
04:00+13ЮЗ, 1 м/с87%1020 гПаоблачнодождь
05:00+13ЮЗ, 1 м/с88%1020 гПаоблачнодождь
06:00+13ЮЗ, 1 м/с91%1020 гПаоблачнодождь
07:00+13З, 2 м/с90%1020 гПаоблачнодождь
08:00+13З, 2 м/с92%1020 гПаоблачнодождь
09:00+12ЮЗ, 2 м/с94%1020 гПаоблачно